sensor_id;sensor_type;location;lat;lon;timestamp;P1;durP1;ratioP1;P2;durP2;ratioP2
60588;SDS011;46421;48.610;9.334;2023-09-18T00:01:17;6.30;;;2.17;;
60588;SDS011;46421;48.610;9.334;2023-09-18T00:03:44;4.38;;;2.10;;
60588;SDS011;46421;48.610;9.334;2023-09-18T00:06:10;4.25;;;1.83;;
60588;SDS011;46421;48.610;9.334;2023-09-18T00:08:36;9.40;;;1.92;;
60588;SDS011;46421;48.610;9.334;2023-09-18T00:11:03;5.00;;;1.95;;
60588;SDS011;46421;48.610;9.334;2023-09-18T00:13:29;4.80;;;1.87;;
60588;SDS011;46421;48.610;9.334;2023-09-18T00:15:54;4.37;;;1.87;;
60588;SDS011;46421;48.610;9.334;2023-09-18T00:18:20;4.72;;;1.83;;
60588;SDS011;46421;48.610;9.334;2023-09-18T00:20:46;4.22;;;2.03;;
60588;SDS011;46421;48.610;9.334;2023-09-18T00:23:13;5.03;;;2.05;;
60588;SDS011;46421;48.610;9.334;2023-09-18T00:25:38;4.47;;;2.00;;
60588;SDS011;46421;48.610;9.334;2023-09-18T00:28:06;4.75;;;1.67;;
60588;SDS011;46421;48.610;9.334;2023-09-18T00:30:31;5.57;;;2.07;;
60588;SDS011;46421;48.610;9.334;2023-09-18T00:32:56;4.73;;;2.00;;
60588;SDS011;46421;48.610;9.334;2023-09-18T00:35:21;4.07;;;1.53;;
60588;SDS011;46421;48.610;9.334;2023-09-18T00:37:48;4.88;;;1.80;;
60588;SDS011;46421;48.610;9.334;2023-09-18T00:40:13;4.43;;;2.03;;
60588;SDS011;46421;48.610;9.334;2023-09-18T00:42:38;6.03;;;2.00;;
60588;SDS011;46421;48.610;9.334;2023-09-18T00:45:03;4.57;;;1.87;;
60588;SDS011;46421;48.610;9.334;2023-09-18T00:47:29;4.32;;;1.80;;
60588;SDS011;46421;48.610;9.334;2023-09-18T00:49:54;4.90;;;2.00;;
60588;SDS011;46421;48.610;9.334;2023-09-18T00:52:20;6.03;;;2.08;;
60588;SDS011;46421;48.610;9.334;2023-09-18T00:54:46;4.82;;;2.00;;
60588;SDS011;46421;48.610;9.334;2023-09-18T00:57:12;5.68;;;2.10;;
60588;SDS011;46421;48.610;9.334;2023-09-18T00:59:38;5.03;;;1.80;;
60588;SDS011;46421;48.610;9.334;2023-09-18T01:02:03;6.45;;;2.20;;
60588;SDS011;46421;48.610;9.334;2023-09-18T01:04:28;6.13;;;2.13;;
60588;SDS011;46421;48.610;9.334;2023-09-18T01:06:54;5.57;;;2.00;;
60588;SDS011;46421;48.610;9.334;2023-09-18T01:09:21;4.03;;;1.83;;
60588;SDS011;46421;48.610;9.334;2023-09-18T01:14:25;4.80;;;2.30;;
60588;SDS011;46421;48.610;9.334;2023-09-18T01:16:55;4.20;;;1.90;;
60588;SDS011;46421;48.610;9.334;2023-09-18T01:22:02;5.07;;;1.60;;
60588;SDS011;46421;48.610;9.334;2023-09-18T01:24:28;5.75;;;1.83;;
60588;SDS011;46421;48.610;9.334;2023-09-18T01:26:53;4.50;;;1.80;;
60588;SDS011;46421;48.610;9.334;2023-09-18T01:29:18;5.17;;;2.17;;
60588;SDS011;46421;48.610;9.334;2023-09-18T01:31:44;4.95;;;1.92;;
60588;SDS011;46421;48.610;9.334;2023-09-18T01:34:12;3.85;;;1.85;;
60588;SDS011;46421;48.610;9.334;2023-09-18T01:36:37;4.43;;;1.83;;
60588;SDS011;46421;48.610;9.334;2023-09-18T01:39:02;3.93;;;1.77;;
60588;SDS011;46421;48.610;9.334;2023-09-18T01:41:27;5.40;;;2.27;;
60588;SDS011;46421;48.610;9.334;2023-09-18T01:43:53;4.77;;;1.80;;
60588;SDS011;46421;48.610;9.334;2023-09-18T01:46:20;4.50;;;1.98;;
60588;SDS011;46421;48.610;9.334;2023-09-18T01:48:46;5.00;;;1.93;;
60588;SDS011;46421;48.610;9.334;2023-09-18T01:51:13;4.72;;;1.75;;
60588;SDS011;46421;48.610;9.334;2023-09-18T01:53:38;5.95;;;2.20;;
60588;SDS011;46421;48.610;9.334;2023-09-18T01:56:03;4.67;;;1.93;;
60588;SDS011;46421;48.610;9.334;2023-09-18T01:58:29;7.83;;;2.67;;
60588;SDS011;46421;48.610;9.334;2023-09-18T02:00:54;6.65;;;2.35;;
60588;SDS011;46421;48.610;9.334;2023-09-18T02:03:19;5.47;;;2.27;;
60588;SDS011;46421;48.610;9.334;2023-09-18T02:05:46;7.20;;;2.60;;
60588;SDS011;46421;48.610;9.334;2023-09-18T02:08:11;4.83;;;2.20;;
60588;SDS011;46421;48.610;9.334;2023-09-18T02:10:36;7.67;;;2.50;;
60588;SDS011;46421;48.610;9.334;2023-09-18T02:13:01;7.40;;;2.37;;
60588;SDS011;46421;48.610;9.334;2023-09-18T02:15:27;5.83;;;2.30;;
60588;SDS011;46421;48.610;9.334;2023-09-18T02:17:52;5.00;;;2.50;;
60588;SDS011;46421;48.610;9.334;2023-09-18T02:20:17;6.30;;;2.50;;
60588;SDS011;46421;48.610;9.334;2023-09-18T02:22:43;8.95;;;2.67;;
60588;SDS011;46421;48.610;9.334;2023-09-18T02:25:11;6.75;;;2.42;;
60588;SDS011;46421;48.610;9.334;2023-09-18T02:27:37;6.40;;;2.17;;
60588;SDS011;46421;48.610;9.334;2023-09-18T02:30:02;5.43;;;2.00;;
60588;SDS011;46421;48.610;9.334;2023-09-18T02:32:27;6.97;;;2.63;;
60588;SDS011;46421;48.610;9.334;2023-09-18T02:34:52;5.43;;;2.10;;
60588;SDS011;46421;48.610;9.334;2023-09-18T02:37:18;4.80;;;2.00;;
60588;SDS011;46421;48.610;9.334;2023-09-18T02:39:43;5.10;;;2.20;;
60588;SDS011;46421;48.610;9.334;2023-09-18T02:42:08;5.33;;;1.87;;
60588;SDS011;46421;48.610;9.334;2023-09-18T02:44:33;6.40;;;2.97;;
60588;SDS011;46421;48.610;9.334;2023-09-18T02:46:59;5.07;;;2.17;;
60588;SDS011;46421;48.610;9.334;2023-09-18T02:49:24;5.43;;;2.00;;
60588;SDS011;46421;48.610;9.334;2023-09-18T02:51:49;4.17;;;2.07;;
60588;SDS011;46421;48.610;9.334;2023-09-18T02:54:15;4.50;;;2.08;;
60588;SDS011;46421;48.610;9.334;2023-09-18T02:56:40;6.47;;;1.92;;
60588;SDS011;46421;48.610;9.334;2023-09-18T02:59:05;5.00;;;2.37;;
60588;SDS011;46421;48.610;9.334;2023-09-18T03:01:30;4.10;;;1.60;;
60588;SDS011;46421;48.610;9.334;2023-09-18T03:03:55;5.33;;;2.10;;
60588;SDS011;46421;48.610;9.334;2023-09-18T03:06:21;5.28;;;1.92;;
60588;SDS011;46421;48.610;9.334;2023-09-18T03:08:46;4.87;;;1.70;;
60588;SDS011;46421;48.610;9.334;2023-09-18T03:11:12;6.43;;;2.40;;
60588;SDS011;46421;48.610;9.334;2023-09-18T03:13:42;5.20;;;2.10;;
60588;SDS011;46421;48.610;9.334;2023-09-18T03:16:09;6.60;;;2.20;;
60588;SDS011;46421;48.610;9.334;2023-09-18T03:18:34;5.43;;;2.20;;
60588;SDS011;46421;48.610;9.334;2023-09-18T03:21:00;7.00;;;2.27;;
60588;SDS011;46421;48.610;9.334;2023-09-18T03:23:25;7.38;;;2.33;;
60588;SDS011;46421;48.610;9.334;2023-09-18T03:25:50;4.13;;;1.90;;
60588;SDS011;46421;48.610;9.334;2023-09-18T03:28:15;4.77;;;1.83;;
60588;SDS011;46421;48.610;9.334;2023-09-18T03:30:41;4.93;;;1.93;;
60588;SDS011;46421;48.610;9.334;2023-09-18T03:33:06;10.17;;;2.50;;
60588;SDS011;46421;48.610;9.334;2023-09-18T03:35:31;6.43;;;2.30;;
60588;SDS011;46421;48.610;9.334;2023-09-18T03:37:57;6.88;;;1.95;;
60588;SDS011;46421;48.610;9.334;2023-09-18T03:40:22;4.40;;;1.87;;
60588;SDS011;46421;48.610;9.334;2023-09-18T03:42:48;7.47;;;2.30;;
60588;SDS011;46421;48.610;9.334;2023-09-18T03:45:14;4.63;;;2.00;;
60588;SDS011;46421;48.610;9.334;2023-09-18T03:47:39;6.70;;;2.10;;
60588;SDS011;46421;48.610;9.334;2023-09-18T03:50:05;7.22;;;2.10;;
60588;SDS011;46421;48.610;9.334;2023-09-18T03:52:31;4.40;;;1.65;;
60588;SDS011;46421;48.610;9.334;2023-09-18T03:54:56;3.93;;;1.87;;
60588;SDS011;46421;48.610;9.334;2023-09-18T03:57:21;8.00;;;1.90;;
60588;SDS011;46421;48.610;9.334;2023-09-18T03:59:46;6.77;;;2.67;;
60588;SDS011;46421;48.610;9.334;2023-09-18T04:02:11;4.60;;;1.80;;
60588;SDS011;46421;48.610;9.334;2023-09-18T04:04:37;5.03;;;2.00;;
60588;SDS011;46421;48.610;9.334;2023-09-18T04:07:05;5.53;;;2.20;;
60588;SDS011;46421;48.610;9.334;2023-09-18T04:09:30;4.22;;;1.75;;
60588;SDS011;46421;48.610;9.334;2023-09-18T04:11:56;4.40;;;1.80;;
60588;SDS011;46421;48.610;9.334;2023-09-18T04:14:21;6.43;;;2.00;;
60588;SDS011;46421;48.610;9.334;2023-09-18T04:16:46;6.50;;;2.07;;
60588;SDS011;46421;48.610;9.334;2023-09-18T04:19:11;5.57;;;2.10;;
60588;SDS011;46421;48.610;9.334;2023-09-18T04:21:36;4.67;;;1.90;;
60588;SDS011;46421;48.610;9.334;2023-09-18T04:24:02;4.53;;;1.73;;
60588;SDS011;46421;48.610;9.334;2023-09-18T04:26:27;5.33;;;1.80;;
60588;SDS011;46421;48.610;9.334;2023-09-18T04:28:56;7.03;;;1.90;;
60588;SDS011;46421;48.610;9.334;2023-09-18T04:31:21;5.45;;;1.90;;
60588;SDS011;46421;48.610;9.334;2023-09-18T04:33:46;4.07;;;1.83;;
60588;SDS011;46421;48.610;9.334;2023-09-18T04:36:11;5.77;;;1.83;;
60588;SDS011;46421;48.610;9.334;2023-09-18T04:38:37;4.07;;;1.88;;
60588;SDS011;46421;48.610;9.334;2023-09-18T04:41:02;5.30;;;1.80;;
60588;SDS011;46421;48.610;9.334;2023-09-18T04:43:27;4.25;;;1.52;;
60588;SDS011;46421;48.610;9.334;2023-09-18T04:45:55;4.93;;;1.95;;
60588;SDS011;46421;48.610;9.334;2023-09-18T04:48:20;4.50;;;1.70;;
60588;SDS011;46421;48.610;9.334;2023-09-18T04:50:45;5.07;;;1.70;;
60588;SDS011;46421;48.610;9.334;2023-09-18T04:53:10;6.00;;;1.80;;
60588;SDS011;46421;48.610;9.334;2023-09-18T04:55:35;5.20;;;1.70;;
60588;SDS011;46421;48.610;9.334;2023-09-18T04:58:01;4.55;;;1.90;;
60588;SDS011;46421;48.610;9.334;2023-09-18T05:00:29;5.40;;;1.90;;
60588;SDS011;46421;48.610;9.334;2023-09-18T05:02:54;5.03;;;2.13;;
60588;SDS011;46421;48.610;9.334;2023-09-18T05:05:19;4.50;;;1.70;;
60588;SDS011;46421;48.610;9.334;2023-09-18T05:07:45;5.50;;;2.00;;
60588;SDS011;46421;48.610;9.334;2023-09-18T05:10:10;5.00;;;1.87;;
60588;SDS011;46421;48.610;9.334;2023-09-18T05:12:35;5.43;;;1.53;;
60588;SDS011;46421;48.610;9.334;2023-09-18T05:15:00;6.93;;;1.90;;
60588;SDS011;46421;48.610;9.334;2023-09-18T05:17:47;3.73;;;1.90;;
60588;SDS011;46421;48.610;9.334;2023-09-18T05:20:13;3.97;;;1.70;;
60588;SDS011;46421;48.610;9.334;2023-09-18T05:22:39;6.20;;;2.03;;
60588;SDS011;46421;48.610;9.334;2023-09-18T05:25:04;4.20;;;1.88;;
60588;SDS011;46421;48.610;9.334;2023-09-18T05:27:31;4.15;;;1.70;;
60588;SDS011;46421;48.610;9.334;2023-09-18T05:29:56;4.87;;;1.60;;
60588;SDS011;46421;48.610;9.334;2023-09-18T05:32:22;4.20;;;1.67;;
60588;SDS011;46421;48.610;9.334;2023-09-18T05:34:47;4.20;;;2.03;;
60588;SDS011;46421;48.610;9.334;2023-09-18T05:37:12;4.80;;;2.00;;
60588;SDS011;46421;48.610;9.334;2023-09-18T05:39:38;4.97;;;1.73;;
60588;SDS011;46421;48.610;9.334;2023-09-18T05:42:03;5.33;;;2.00;;
60588;SDS011;46421;48.610;9.334;2023-09-18T05:44:28;5.47;;;2.10;;
60588;SDS011;46421;48.610;9.334;2023-09-18T05:46:53;4.87;;;1.57;;
60588;SDS011;46421;48.610;9.334;2023-09-18T05:49:19;3.93;;;1.70;;
60588;SDS011;46421;48.610;9.334;2023-09-18T05:51:44;6.23;;;1.77;;
60588;SDS011;46421;48.610;9.334;2023-09-18T05:54:09;3.50;;;1.50;;
60588;SDS011;46421;48.610;9.334;2023-09-18T05:56:34;6.37;;;1.70;;
60588;SDS011;46421;48.610;9.334;2023-09-18T05:59:00;5.17;;;1.80;;
60588;SDS011;46421;48.610;9.334;2023-09-18T06:01:25;6.33;;;1.97;;
60588;SDS011;46421;48.610;9.334;2023-09-18T06:03:50;5.53;;;1.63;;
60588;SDS011;46421;48.610;9.334;2023-09-18T06:06:16;5.70;;;1.93;;
60588;SDS011;46421;48.610;9.334;2023-09-18T06:08:41;3.70;;;1.30;;
60588;SDS011;46421;48.610;9.334;2023-09-18T06:11:06;5.47;;;1.50;;
60588;SDS011;46421;48.610;9.334;2023-09-18T06:13:31;4.57;;;1.50;;
60588;SDS011;46421;48.610;9.334;2023-09-18T06:15:59;6.63;;;1.95;;
60588;SDS011;46421;48.610;9.334;2023-09-18T06:18:24;5.47;;;1.77;;
60588;SDS011;46421;48.610;9.334;2023-09-18T06:20:49;5.77;;;1.87;;
60588;SDS011;46421;48.610;9.334;2023-09-18T06:23:15;5.03;;;1.42;;
60588;SDS011;46421;48.610;9.334;2023-09-18T06:25:40;5.37;;;1.73;;
60588;SDS011;46421;48.610;9.334;2023-09-18T06:28:06;6.77;;;2.17;;
60588;SDS011;46421;48.610;9.334;2023-09-18T06:30:31;4.72;;;1.80;;
60588;SDS011;46421;48.610;9.334;2023-09-18T06:32:58;5.38;;;1.83;;
60588;SDS011;46421;48.610;9.334;2023-09-18T06:35:23;6.13;;;1.67;;
60588;SDS011;46421;48.610;9.334;2023-09-18T06:37:48;5.27;;;1.87;;
60588;SDS011;46421;48.610;9.334;2023-09-18T06:40:13;7.07;;;1.57;;
60588;SDS011;46421;48.610;9.334;2023-09-18T06:42:39;4.30;;;1.43;;
60588;SDS011;46421;48.610;9.334;2023-09-18T06:45:04;5.40;;;1.70;;
60588;SDS011;46421;48.610;9.334;2023-09-18T06:47:32;8.27;;;1.95;;
60588;SDS011;46421;48.610;9.334;2023-09-18T06:49:57;4.53;;;1.80;;
60588;SDS011;46421;48.610;9.334;2023-09-18T06:52:22;5.05;;;1.85;;
60588;SDS011;46421;48.610;9.334;2023-09-18T06:54:48;6.00;;;1.93;;
60588;SDS011;46421;48.610;9.334;2023-09-18T06:57:13;7.73;;;1.63;;
60588;SDS011;46421;48.610;9.334;2023-09-18T06:59:38;6.13;;;1.20;;
60588;SDS011;46421;48.610;9.334;2023-09-18T07:02:03;4.20;;;1.50;;
60588;SDS011;46421;48.610;9.334;2023-09-18T07:04:28;6.03;;;1.30;;
60588;SDS011;46421;48.610;9.334;2023-09-18T07:06:54;4.77;;;1.30;;
60588;SDS011;46421;48.610;9.334;2023-09-18T07:09:19;6.47;;;1.13;;
60588;SDS011;46421;48.610;9.334;2023-09-18T07:11:44;4.70;;;1.33;;
60588;SDS011;46421;48.610;9.334;2023-09-18T07:14:10;4.57;;;1.50;;
60588;SDS011;46421;48.610;9.334;2023-09-18T07:16:35;3.63;;;1.63;;
60588;SDS011;46421;48.610;9.334;2023-09-18T07:19:00;4.13;;;0.97;;
60588;SDS011;46421;48.610;9.334;2023-09-18T07:21:26;3.38;;;1.40;;
60588;SDS011;46421;48.610;9.334;2023-09-18T07:23:51;4.47;;;1.40;;
60588;SDS011;46421;48.610;9.334;2023-09-18T07:26:17;4.77;;;1.10;;
60588;SDS011;46421;48.610;9.334;2023-09-18T07:28:42;3.57;;;1.20;;
60588;SDS011;46421;48.610;9.334;2023-09-18T07:31:09;5.80;;;1.67;;
60588;SDS011;46421;48.610;9.334;2023-09-18T07:33:37;6.00;;;1.60;;
60588;SDS011;46421;48.610;9.334;2023-09-18T07:36:02;4.40;;;1.20;;
60588;SDS011;46421;48.610;9.334;2023-09-18T07:38:28;5.55;;;1.30;;
60588;SDS011;46421;48.610;9.334;2023-09-18T07:40:53;5.80;;;1.27;;
60588;SDS011;46421;48.610;9.334;2023-09-18T07:43:18;4.60;;;1.30;;
60588;SDS011;46421;48.610;9.334;2023-09-18T07:45:44;5.20;;;2.00;;
60588;SDS011;46421;48.610;9.334;2023-09-18T07:48:09;3.67;;;1.13;;
60588;SDS011;46421;48.610;9.334;2023-09-18T07:50:34;4.80;;;1.60;;
60588;SDS011;46421;48.610;9.334;2023-09-18T07:53:00;5.18;;;1.67;;
60588;SDS011;46421;48.610;9.334;2023-09-18T07:55:25;3.70;;;1.10;;
60588;SDS011;46421;48.610;9.334;2023-09-18T07:57:51;4.10;;;1.23;;
60588;SDS011;46421;48.610;9.334;2023-09-18T08:00:16;4.43;;;1.37;;
60588;SDS011;46421;48.610;9.334;2023-09-18T08:02:42;6.70;;;1.30;;
60588;SDS011;46421;48.610;9.334;2023-09-18T08:05:07;5.65;;;1.33;;
60588;SDS011;46421;48.610;9.334;2023-09-18T08:07:33;4.40;;;1.70;;
60588;SDS011;46421;48.610;9.334;2023-09-18T08:10:00;4.57;;;1.38;;
60588;SDS011;46421;48.610;9.334;2023-09-18T08:12:25;4.70;;;1.37;;
60588;SDS011;46421;48.610;9.334;2023-09-18T08:14:50;5.13;;;1.30;;
60588;SDS011;46421;48.610;9.334;2023-09-18T08:17:16;3.10;;;0.87;;
60588;SDS011;46421;48.610;9.334;2023-09-18T08:19:41;4.57;;;1.23;;
60588;SDS011;46421;48.610;9.334;2023-09-18T08:22:07;4.85;;;1.63;;
60588;SDS011;46421;48.610;9.334;2023-09-18T08:24:33;3.83;;;1.00;;
60588;SDS011;46421;48.610;9.334;2023-09-18T08:26:58;3.03;;;1.17;;
60588;SDS011;46421;48.610;9.334;2023-09-18T08:29:23;4.50;;;1.00;;
60588;SDS011;46421;48.610;9.334;2023-09-18T08:31:48;4.80;;;1.27;;
60588;SDS011;46421;48.610;9.334;2023-09-18T08:34:15;6.00;;;1.17;;
60588;SDS011;46421;48.610;9.334;2023-09-18T08:36:40;3.85;;;1.10;;
60588;SDS011;46421;48.610;9.334;2023-09-18T08:39:06;3.63;;;0.90;;
60588;SDS011;46421;48.610;9.334;2023-09-18T08:41:31;3.10;;;0.85;;
60588;SDS011;46421;48.610;9.334;2023-09-18T08:44:01;4.90;;;0.73;;
60588;SDS011;46421;48.610;9.334;2023-09-18T08:46:28;3.97;;;0.90;;
60588;SDS011;46421;48.610;9.334;2023-09-18T08:48:53;2.17;;;0.75;;
60588;SDS011;46421;48.610;9.334;2023-09-18T08:51:19;1.65;;;0.70;;
60588;SDS011;46421;48.610;9.334;2023-09-18T08:53:44;5.10;;;1.13;;
60588;SDS011;46421;48.610;9.334;2023-09-18T08:56:10;3.75;;;1.00;;
60588;SDS011;46421;48.610;9.334;2023-09-18T08:58:37;3.13;;;1.00;;
60588;SDS011;46421;48.610;9.334;2023-09-18T09:01:05;2.08;;;0.80;;
60588;SDS011;46421;48.610;9.334;2023-09-18T09:03:31;3.92;;;1.23;;
60588;SDS011;46421;48.610;9.334;2023-09-18T09:08:26;1.92;;;0.80;;
60588;SDS011;46421;48.610;9.334;2023-09-18T09:10:51;2.70;;;0.82;;
60588;SDS011;46421;48.610;9.334;2023-09-18T09:13:17;1.45;;;0.70;;
60588;SDS011;46421;48.610;9.334;2023-09-18T09:15:46;2.42;;;1.10;;
60588;SDS011;46421;48.610;9.334;2023-09-18T09:18:12;3.25;;;0.82;;
60588;SDS011;46421;48.610;9.334;2023-09-18T09:20:37;2.67;;;0.93;;
60588;SDS011;46421;48.610;9.334;2023-09-18T09:23:03;5.13;;;1.07;;
60588;SDS011;46421;48.610;9.334;2023-09-18T09:25:29;2.97;;;0.80;;
60588;SDS011;46421;48.610;9.334;2023-09-18T09:27:57;4.72;;;0.95;;
60588;SDS011;46421;48.610;9.334;2023-09-18T09:30:23;2.05;;;0.90;;
60588;SDS011;46421;48.610;9.334;2023-09-18T09:32:51;3.03;;;0.90;;
60588;SDS011;46421;48.610;9.334;2023-09-18T09:35:35;2.25;;;0.80;;
60588;SDS011;46421;48.610;9.334;2023-09-18T09:38:07;2.20;;;0.70;;
60588;SDS011;46421;48.610;9.334;2023-09-18T09:40:32;3.50;;;0.82;;
60588;SDS011;46421;48.610;9.334;2023-09-18T09:43:00;3.42;;;0.90;;
60588;SDS011;46421;48.610;9.334;2023-09-18T09:45:26;2.58;;;0.93;;
60588;SDS011;46421;48.610;9.334;2023-09-18T09:47:54;2.45;;;0.77;;
60588;SDS011;46421;48.610;9.334;2023-09-18T09:50:20;2.90;;;0.80;;
60588;SDS011;46421;48.610;9.334;2023-09-18T09:52:47;3.72;;;1.15;;
60588;SDS011;46421;48.610;9.334;2023-09-18T09:55:20;2.25;;;0.80;;
60588;SDS011;46421;48.610;9.334;2023-09-18T09:57:49;3.03;;;0.68;;
60588;SDS011;46421;48.610;9.334;2023-09-18T10:00:15;4.95;;;1.25;;
60588;SDS011;46421;48.610;9.334;2023-09-18T10:02:59;1.52;;;0.70;;
60588;SDS011;46421;48.610;9.334;2023-09-18T10:05:25;3.15;;;0.70;;
60588;SDS011;46421;48.610;9.334;2023-09-18T10:07:51;2.75;;;0.90;;
60588;SDS011;46421;48.610;9.334;2023-09-18T10:10:17;2.88;;;0.75;;
60588;SDS011;46421;48.610;9.334;2023-09-18T10:12:43;2.20;;;0.60;;
60588;SDS011;46421;48.610;9.334;2023-09-18T10:15:08;2.63;;;0.70;;
60588;SDS011;46421;48.610;9.334;2023-09-18T10:17:36;2.53;;;0.80;;
60588;SDS011;46421;48.610;9.334;2023-09-18T10:20:07;6.20;;;1.00;;
60588;SDS011;46421;48.610;9.334;2023-09-18T10:22:37;2.15;;;0.80;;
60588;SDS011;46421;48.610;9.334;2023-09-18T10:25:20;2.35;;;0.80;;
60588;SDS011;46421;48.610;9.334;2023-09-18T10:27:47;2.20;;;0.82;;
60588;SDS011;46421;48.610;9.334;2023-09-18T10:30:23;3.35;;;0.70;;
60588;SDS011;46421;48.610;9.334;2023-09-18T10:32:49;2.25;;;0.80;;
60588;SDS011;46421;48.610;9.334;2023-09-18T10:35:15;4.78;;;0.77;;
60588;SDS011;46421;48.610;9.334;2023-09-18T10:37:44;2.85;;;0.63;;
60588;SDS011;46421;48.610;9.334;2023-09-18T10:40:10;2.88;;;1.02;;
60588;SDS011;46421;48.610;9.334;2023-09-18T10:42:37;1.40;;;0.60;;
60588;SDS011;46421;48.610;9.334;2023-09-18T10:45:03;1.75;;;0.65;;
60588;SDS011;46421;48.610;9.334;2023-09-18T10:47:29;3.20;;;0.80;;
60588;SDS011;46421;48.610;9.334;2023-09-18T10:49:55;1.42;;;0.60;;
60588;SDS011;46421;48.610;9.334;2023-09-18T10:52:20;2.90;;;0.70;;
60588;SDS011;46421;48.610;9.334;2023-09-18T10:54:46;1.83;;;0.70;;
60588;SDS011;46421;48.610;9.334;2023-09-18T10:57:11;2.83;;;0.53;;
60588;SDS011;46421;48.610;9.334;2023-09-18T10:59:46;3.40;;;0.50;;
60588;SDS011;46421;48.610;9.334;2023-09-18T11:02:14;2.85;;;0.60;;
60588;SDS011;46421;48.610;9.334;2023-09-18T11:04:43;3.22;;;0.80;;
60588;SDS011;46421;48.610;9.334;2023-09-18T11:07:09;2.65;;;1.00;;
60588;SDS011;46421;48.610;9.334;2023-09-18T11:09:44;2.88;;;1.05;;
60588;SDS011;46421;48.610;9.334;2023-09-18T11:12:10;2.75;;;0.88;;
60588;SDS011;46421;48.610;9.334;2023-09-18T11:17:35;4.18;;;0.90;;
60588;SDS011;46421;48.610;9.334;2023-09-18T11:22:34;2.35;;;0.73;;
60588;SDS011;46421;48.610;9.334;2023-09-18T11:27:54;3.30;;;0.98;;
60588;SDS011;46421;48.610;9.334;2023-09-18T11:30:20;2.08;;;0.70;;
60588;SDS011;46421;48.610;9.334;2023-09-18T11:32:46;2.73;;;1.07;;
60588;SDS011;46421;48.610;9.334;2023-09-18T11:35:11;1.73;;;0.70;;
60588;SDS011;46421;48.610;9.334;2023-09-18T11:37:37;1.73;;;0.63;;
60588;SDS011;46421;48.610;9.334;2023-09-18T11:40:03;2.27;;;0.80;;
60588;SDS011;46421;48.610;9.334;2023-09-18T11:42:29;3.50;;;0.80;;
60588;SDS011;46421;48.610;9.334;2023-09-18T11:44:55;2.45;;;0.80;;
60588;SDS011;46421;48.610;9.334;2023-09-18T11:47:24;1.58;;;0.60;;
60588;SDS011;46421;48.610;9.334;2023-09-18T11:49:58;1.92;;;0.75;;
60588;SDS011;46421;48.610;9.334;2023-09-18T11:52:24;1.65;;;0.60;;
60588;SDS011;46421;48.610;9.334;2023-09-18T11:54:50;2.10;;;0.80;;
60588;SDS011;46421;48.610;9.334;2023-09-18T11:57:17;1.98;;;0.65;;
60588;SDS011;46421;48.610;9.334;2023-09-18T11:59:42;2.85;;;0.93;;
60588;SDS011;46421;48.610;9.334;2023-09-18T12:02:08;2.00;;;0.70;;
60588;SDS011;46421;48.610;9.334;2023-09-18T12:04:33;3.08;;;0.70;;
60588;SDS011;46421;48.610;9.334;2023-09-18T12:06:59;2.78;;;0.70;;
60588;SDS011;46421;48.610;9.334;2023-09-18T12:09:28;1.55;;;0.70;;
60588;SDS011;46421;48.610;9.334;2023-09-18T12:11:53;2.72;;;0.80;;
60588;SDS011;46421;48.610;9.334;2023-09-18T12:14:20;2.60;;;0.85;;
60588;SDS011;46421;48.610;9.334;2023-09-18T12:16:45;1.63;;;0.57;;
60588;SDS011;46421;48.610;9.334;2023-09-18T12:19:18;4.28;;;1.05;;
60588;SDS011;46421;48.610;9.334;2023-09-18T12:21:45;3.67;;;1.00;;
60588;SDS011;46421;48.610;9.334;2023-09-18T12:24:24;3.08;;;0.77;;
60588;SDS011;46421;48.610;9.334;2023-09-18T12:26:50;2.65;;;0.77;;
60588;SDS011;46421;48.610;9.334;2023-09-18T12:29:16;3.20;;;0.73;;
60588;SDS011;46421;48.610;9.334;2023-09-18T12:31:41;3.23;;;0.93;;
60588;SDS011;46421;48.610;9.334;2023-09-18T12:34:18;2.95;;;0.60;;
60588;SDS011;46421;48.610;9.334;2023-09-18T12:36:43;1.90;;;0.70;;
60588;SDS011;46421;48.610;9.334;2023-09-18T12:39:09;3.58;;;0.80;;
60588;SDS011;46421;48.610;9.334;2023-09-18T12:41:35;2.42;;;0.70;;
60588;SDS011;46421;48.610;9.334;2023-09-18T12:44:01;1.23;;;0.60;;
60588;SDS011;46421;48.610;9.334;2023-09-18T12:46:28;1.58;;;0.70;;
60588;SDS011;46421;48.610;9.334;2023-09-18T12:48:54;2.55;;;0.77;;
60588;SDS011;46421;48.610;9.334;2023-09-18T12:51:28;1.63;;;0.60;;
60588;SDS011;46421;48.610;9.334;2023-09-18T12:54:02;2.85;;;0.80;;
60588;SDS011;46421;48.610;9.334;2023-09-18T12:56:31;2.03;;;0.90;;
60588;SDS011;46421;48.610;9.334;2023-09-18T12:58:57;4.85;;;0.95;;
60588;SDS011;46421;48.610;9.334;2023-09-18T13:01:23;2.92;;;0.70;;
60588;SDS011;46421;48.610;9.334;2023-09-18T13:03:48;2.37;;;0.93;;
60588;SDS011;46421;48.610;9.334;2023-09-18T13:06:17;1.17;;;0.60;;
60588;SDS011;46421;48.610;9.334;2023-09-18T13:08:43;2.97;;;1.48;;
60588;SDS011;46421;48.610;9.334;2023-09-18T13:11:08;2.55;;;0.80;;
60588;SDS011;46421;48.610;9.334;2023-09-18T13:13:35;2.28;;;0.70;;
60588;SDS011;46421;48.610;9.334;2023-09-18T13:16:04;5.13;;;1.20;;
60588;SDS011;46421;48.610;9.334;2023-09-18T13:18:29;1.95;;;0.70;;
60588;SDS011;46421;48.610;9.334;2023-09-18T13:20:54;2.20;;;0.70;;
60588;SDS011;46421;48.610;9.334;2023-09-18T13:23:27;4.90;;;0.98;;
60588;SDS011;46421;48.610;9.334;2023-09-18T13:25:58;1.23;;;0.63;;
60588;SDS011;46421;48.610;9.334;2023-09-18T13:28:23;2.88;;;0.82;;
60588;SDS011;46421;48.610;9.334;2023-09-18T13:30:48;3.03;;;0.80;;
60588;SDS011;46421;48.610;9.334;2023-09-18T13:33:16;1.90;;;0.75;;
60588;SDS011;46421;48.610;9.334;2023-09-18T13:35:42;4.20;;;0.73;;
60588;SDS011;46421;48.610;9.334;2023-09-18T13:38:08;1.92;;;0.68;;
60588;SDS011;46421;48.610;9.334;2023-09-18T13:40:36;1.73;;;0.70;;
60588;SDS011;46421;48.610;9.334;2023-09-18T13:43:02;2.92;;;0.88;;
60588;SDS011;46421;48.610;9.334;2023-09-18T13:45:31;2.33;;;0.63;;
60588;SDS011;46421;48.610;9.334;2023-09-18T13:47:56;2.65;;;1.05;;
60588;SDS011;46421;48.610;9.334;2023-09-18T13:50:21;2.70;;;0.97;;
60588;SDS011;46421;48.610;9.334;2023-09-18T13:52:47;3.33;;;0.90;;
60588;SDS011;46421;48.610;9.334;2023-09-18T13:55:12;2.20;;;0.60;;
60588;SDS011;46421;48.610;9.334;2023-09-18T13:57:37;3.00;;;0.70;;
60588;SDS011;46421;48.610;9.334;2023-09-18T14:00:05;4.75;;;0.70;;
60588;SDS011;46421;48.610;9.334;2023-09-18T14:02:31;1.70;;;0.90;;
60588;SDS011;46421;48.610;9.334;2023-09-18T14:04:57;1.48;;;0.60;;
60588;SDS011;46421;48.610;9.334;2023-09-18T14:07:22;2.50;;;0.60;;
60588;SDS011;46421;48.610;9.334;2023-09-18T14:09:48;2.53;;;0.70;;
60588;SDS011;46421;48.610;9.334;2023-09-18T14:12:13;2.83;;;0.90;;
60588;SDS011;46421;48.610;9.334;2023-09-18T14:14:38;1.93;;;0.70;;
60588;SDS011;46421;48.610;9.334;2023-09-18T14:17:05;2.00;;;0.80;;
60588;SDS011;46421;48.610;9.334;2023-09-18T14:19:30;2.40;;;0.68;;
60588;SDS011;46421;48.610;9.334;2023-09-18T14:21:56;2.70;;;0.73;;
60588;SDS011;46421;48.610;9.334;2023-09-18T14:24:21;1.97;;;0.70;;
60588;SDS011;46421;48.610;9.334;2023-09-18T14:26:50;2.65;;;0.77;;
60588;SDS011;46421;48.610;9.334;2023-09-18T14:29:15;1.80;;;0.70;;
60588;SDS011;46421;48.610;9.334;2023-09-18T14:31:41;2.27;;;0.80;;
60588;SDS011;46421;48.610;9.334;2023-09-18T14:34:07;1.83;;;0.70;;
60588;SDS011;46421;48.610;9.334;2023-09-18T14:36:33;2.60;;;0.77;;
60588;SDS011;46421;48.610;9.334;2023-09-18T14:39:02;3.20;;;1.23;;
60588;SDS011;46421;48.610;9.334;2023-09-18T14:41:28;3.70;;;0.80;;
60588;SDS011;46421;48.610;9.334;2023-09-18T14:43:53;2.15;;;0.70;;
60588;SDS011;46421;48.610;9.334;2023-09-18T14:46:18;1.58;;;0.70;;
60588;SDS011;46421;48.610;9.334;2023-09-18T14:48:44;2.03;;;0.90;;
60588;SDS011;46421;48.610;9.334;2023-09-18T14:51:09;2.40;;;0.90;;
60588;SDS011;46421;48.610;9.334;2023-09-18T14:53:34;1.63;;;0.80;;
60588;SDS011;46421;48.610;9.334;2023-09-18T14:56:00;3.70;;;0.70;;
60588;SDS011;46421;48.610;9.334;2023-09-18T14:58:25;2.60;;;0.93;;